Time;durP1;ratioP1;P1;durP2;ratioP2;P2;SDS_P1;SDS_P2;PMS_P1;PMS_P2;Temp;Humidity;BMP_temperature;BMP_pressure;BME280_temperature;BME280_humidity;BME280_pressure;Samples;Min_cycle;Max_cycle;Signal;HPM_P1;HPM_P2
2021/01/04 00:00:33;;;;;;;31.80;20.90;;;2.80;91.40;;;;;;4988753;28;20229;-78
2021/01/04 00:03:36;;;;;;;37.03;22.65;;;2.70;90.70;;;;;;4991511;28;20205;-77
2021/01/04 00:06:23;;;;;;;36.78;22.23;;;2.70;90.70;;;;;;4982728;28;20207;-77
2021/01/04 00:09:08;;;;;;;37.53;22.70;;;2.70;90.70;;;;;;4989026;28;20209;-77
2021/01/04 00:11:51;;;;;;;36.88;21.60;;;2.70;90.30;;;;;;4992109;28;20209;-78
2021/01/04 00:14:38;;;;;;;34.90;22.85;;;2.70;90.20;;;;;;4982562;28;20244;-79
2021/01/04 00:17:31;;;;;;;35.63;23.38;;;2.80;90.10;;;;;;4969032;29;20497;-77
2021/01/04 00:20:07;;;;;;;34.67;22.20;;;2.80;89.60;;;;;;4976546;28;20245;-77
2021/01/04 00:22:44;;;;;;;42.50;19.67;;;2.80;89.20;;;;;;4990209;28;20216;-79
2021/01/04 00:25:19;;;;;;;42.47;23.42;;;2.70;88.60;;;;;;4997471;28;20217;-76
2021/01/04 00:27:49;;;;;;;30.83;20.42;;;2.70;89.00;;;;;;4995781;28;20194;-77
2021/01/04 00:30:20;;;;;;;36.90;23.42;;;2.80;89.00;;;;;;4997043;28;20442;-79
2021/01/04 00:32:47;;;;;;;39.25;24.65;;;2.80;89.00;;;;;;4997499;28;20201;-78
2021/01/04 00:35:16;;;;;;;34.97;22.02;;;2.80;89.30;;;;;;4997976;28;20248;-78
2021/01/04 00:38:25;;;;;;;36.63;22.35;;;2.70;89.30;;;;;;4996524;28;20475;-82
2021/01/04 00:41:19;;;;;;;35.65;23.27;;;2.70;89.80;;;;;;4997713;28;20221;-78
2021/01/04 00:43:49;;;;;;;33.42;21.55;;;2.80;90.20;;;;;;4997006;28;20225;-77
2021/01/04 00:46:19;;;;;;;36.03;22.48;;;2.80;90.10;;;;;;4997662;28;20200;-77
2021/01/04 00:48:58;;;;;;;38.40;23.70;;;2.80;90.30;;;;;;4998119;28;20197;-81
2021/01/04 00:51:37;;;;;;;33.40;22.60;;;2.70;90.00;;;;;;4998535;28;20217;-80
2021/01/04 00:54:27;;;;;;;39.28;24.48;;;2.70;90.60;;;;;;4997414;28;20240;-76
2021/01/04 00:57:07;;;;;;;40.83;23.20;;;2.70;90.70;;;;;;4997574;28;20213;-76
2021/01/04 00:59:47;;;;;;;42.78;24.50;;;2.70;90.40;;;;;;4997187;28;20267;-80
2021/01/04 01:02:58;;;;;;;38.00;23.75;;;2.70;90.70;;;;;;4994447;28;20244;-77
2021/01/04 01:05:37;;;;;;;41.78;24.23;;;2.80;90.10;;;;;;4955879;28;20215;-76
2021/01/04 01:08:13;;;;;;;32.92;22.20;;;2.70;90.00;;;;;;4996861;28;20210;-78
2021/01/04 01:10:43;;;;;;;38.70;23.55;;;2.60;89.80;;;;;;4997896;28;20476;-78
2021/01/04 01:13:21;;;;;;;39.88;25.15;;;2.60;89.50;;;;;;4997536;28;20232;-76
2021/01/04 01:15:57;;;;;;;35.38;23.00;;;2.70;89.70;;;;;;4997898;28;20201;-78
2021/01/04 01:18:37;;;;;;;37.30;22.60;;;2.60;90.00;;;;;;4997551;28;20216;-76
2021/01/04 01:21:07;;;;;;;38.83;24.77;;;2.70;90.60;;;;;;4998017;28;20229;-77
2021/01/04 01:23:36;;;;;;;41.15;24.88;;;2.60;91.30;;;;;;4997464;28;20200;-76
2021/01/04 01:26:33;;;;;;;41.38;24.98;;;2.40;92.60;;;;;;4997353;28;20248;-82
2021/01/04 01:29:29;;;;;;;41.38;24.75;;;2.30;93.80;;;;;;4997593;28;20192;-76
2021/01/04 01:32:27;;;;;;;47.25;26.23;;;2.20;94.50;;;;;;4989162;28;20193;-75
2021/01/04 01:35:07;;;;;;;43.03;25.30;;;2.20;95.00;;;;;;4998003;28;20225;-75
2021/01/04 01:38:11;;;;;;;52.17;28.83;;;2.20;95.80;;;;;;4996705;28;20214;-80
2021/01/04 01:41:00;;;;;;;45.10;24.58;;;2.10;96.50;;;;;;4995886;28;20225;-81
2021/01/04 01:43:45;;;;;;;41.97;25.05;;;2.20;96.90;;;;;;4996527;28;20229;-81
2021/01/04 01:46:17;;;;;;;51.58;25.77;;;2.30;97.10;;;;;;4997297;28;20198;-82
2021/01/04 01:48:55;;;;;;;45.08;25.70;;;2.30;97.30;;;;;;4997047;28;20209;-80
2021/01/04 01:51:44;;;;;;;43.95;26.88;;;2.30;97.20;;;;;;4995877;28;20209;-81
2021/01/04 01:54:27;;;;;;;43.40;25.90;;;2.20;97.50;;;;;;4996756;28;20205;-77
2021/01/04 01:57:09;;;;;;;46.15;24.80;;;2.20;97.50;;;;;;4996703;28;20200;-76
2021/01/04 01:59:51;;;;;;;41.58;25.63;;;2.20;97.50;;;;;;4995431;28;20228;-76
2021/01/04 02:02:25;;;;;;;47.75;26.20;;;2.20;97.60;;;;;;4997061;28;20281;-82
2021/01/04 02:04:59;;;;;;;43.47;26.05;;;2.20;97.70;;;;;;4996424;28;20254;-75
2021/01/04 02:07:33;;;;;;;50.38;28.15;;;2.10;97.30;;;;;;4996233;28;20192;-75
2021/01/04 02:10:05;;;;;;;51.22;28.40;;;2.10;97.70;;;;;;4996741;28;20224;-83
2021/01/04 02:12:41;;;;;;;48.08;25.10;;;2.10;97.50;;;;;;4997171;28;20193;-75
2021/01/04 02:15:12;;;;;;;46.67;25.70;;;2.20;97.60;;;;;;4997002;28;20227;-77
2021/01/04 02:18:05;;;;;;;48.17;28.10;;;2.20;97.50;;;;;;4996193;28;20208;-76
2021/01/04 02:21:19;;;;;;;46.88;25.85;;;2.20;97.20;;;;;;4994438;28;20253;-81
2021/01/04 02:24:05;;;;;;;47.50;28.08;;;2.30;97.30;;;;;;4994300;28;20205;-77
2021/01/04 02:26:32;;;;;;;47.78;27.23;;;2.10;97.20;;;;;;4995159;28;20266;-76
2021/01/04 02:29:02;;;;;;;52.15;27.65;;;2.10;97.20;;;;;;4994443;28;20239;-78
2021/01/04 02:31:30;;;;;;;51.83;27.77;;;2.00;97.30;;;;;;4994860;28;20581;-78
2021/01/04 02:33:57;;;;;;;50.70;27.77;;;2.00;97.50;;;;;;4996211;28;20256;-75
2021/01/04 02:36:26;;;;;;;46.50;27.17;;;2.00;97.60;;;;;;4995091;28;20209;-77
2021/01/04 02:39:02;;;;;;;49.20;29.38;;;2.10;97.80;;;;;;4994802;28;20210;-77
2021/01/04 02:41:40;;;;;;;51.63;28.40;;;2.00;97.50;;;;;;4996449;28;20268;-76
2021/01/04 02:44:06;;;;;;;49.30;27.05;;;2.00;97.50;;;;;;4996268;28;20239;-78
2021/01/04 02:46:37;;;;;;;49.50;28.00;;;2.00;97.90;;;;;;4994546;28;20201;-77
2021/01/04 02:49:13;;;;;;;49.08;29.38;;;2.00;97.90;;;;;;4992913;28;20204;-76
2021/01/04 02:51:43;;;;;;;53.65;27.45;;;1.90;98.10;;;;;;4996564;28;20253;-75
2021/01/04 02:54:22;;;;;;;50.80;27.95;;;2.00;97.80;;;;;;4995393;28;20193;-76
2021/01/04 02:56:58;;;;;;;49.03;27.48;;;2.00;98.00;;;;;;4992863;28;20209;-77
2021/01/04 02:59:52;;;;;;;50.42;26.48;;;2.00;98.20;;;;;;4994006;28;20220;-77
2021/01/04 03:02:27;;;;;;;49.63;26.77;;;2.00;98.10;;;;;;4996185;28;20193;-75
2021/01/04 03:04:54;;;;;;;48.72;28.02;;;2.10;98.40;;;;;;4996225;28;20283;-83
2021/01/04 03:07:24;;;;;;;56.08;28.60;;;2.00;98.20;;;;;;4995124;28;20190;-83
2021/01/04 03:09:53;;;;;;;48.20;27.60;;;2.00;98.30;;;;;;4996095;28;20232;-77
2021/01/04 03:12:24;;;;;;;52.10;27.98;;;1.90;98.40;;;;;;4993118;28;20263;-79
2021/01/04 03:15:09;;;;;;;50.30;28.05;;;2.00;98.90;;;;;;4995558;28;20193;-76
2021/01/04 03:17:45;;;;;;;48.08;27.73;;;2.00;98.90;;;;;;4990602;28;20202;-76
2021/01/04 03:20:14;;;;;;;51.15;26.27;;;2.00;98.80;;;;;;4991316;28;20235;-77
2021/01/04 03:22:43;;;;;;;50.90;28.25;;;2.00;99.20;;;;;;4979824;28;20205;-77
2021/01/04 03:25:19;;;;;;;50.10;27.27;;;2.00;99.20;;;;;;4980387;28;20296;-78
2021/01/04 03:27:46;;;;;;;49.30;28.80;;;2.10;99.20;;;;;;4973842;28;20215;-77
2021/01/04 03:30:14;;;;;;;51.25;27.48;;;2.10;99.20;;;;;;4975042;28;20364;-76
2021/01/04 03:32:41;;;;;;;57.88;28.70;;;2.00;99.30;;;;;;4976665;28;20207;-77
2021/01/04 03:35:09;;;;;;;48.30;26.67;;;2.00;99.70;;;;;;4976532;28;20663;-76
2021/01/04 03:37:35;;;;;;;54.58;29.50;;;2.00;99.80;;;;;;4978288;28;20201;-77
2021/01/04 03:40:30;;;;;;;54.88;28.58;;;2.00;99.90;;;;;;4974651;28;20780;-77
2021/01/04 03:42:58;;;;;;;50.92;27.30;;;1.90;99.90;;;;;;4979123;28;20689;-76
2021/01/04 03:45:24;;;;;;;54.13;29.33;;;1.90;99.90;;;;;;4978609;28;20232;-76
2021/01/04 03:47:54;;;;;;;49.88;26.35;;;2.00;99.90;;;;;;4987525;28;20244;-77
2021/01/04 03:50:21;;;;;;;50.40;27.88;;;2.00;99.90;;;;;;4988590;28;20252;-77
2021/01/04 03:52:48;;;;;;;49.55;28.48;;;2.00;99.90;;;;;;4976135;28;20209;-76
2021/01/04 03:55:16;;;;;;;51.28;29.02;;;1.90;99.90;;;;;;4985709;28;20243;-77
2021/01/04 03:57:43;;;;;;;49.92;28.10;;;1.90;99.90;;;;;;4980685;28;20213;-77
2021/01/04 04:00:12;;;;;;;52.25;29.48;;;1.90;99.90;;;;;;4980608;28;20229;-77
2021/01/04 04:02:39;;;;;;;56.75;31.10;;;1.90;99.90;;;;;;4978453;28;20201;-77
2021/01/04 04:05:07;;;;;;;55.17;29.98;;;1.90;99.90;;;;;;4980362;28;20647;-77
2021/01/04 04:07:34;;;;;;;52.47;29.08;;;1.90;99.90;;;;;;4978442;28;20242;-77
2021/01/04 04:10:01;;;;;;;54.45;28.67;;;1.90;99.90;;;;;;4991047;28;20289;-77
2021/01/04 04:12:27;;;;;;;49.92;30.02;;;2.00;99.90;;;;;;4978248;28;20294;-76
2021/01/04 04:14:54;;;;;;;51.25;29.70;;;2.00;99.90;;;;;;4983558;28;20220;-76
2021/01/04 04:17:21;;;;;;;50.67;26.35;;;2.00;99.90;;;;;;4985871;28;20213;-76
2021/01/04 04:19:49;;;;;;;51.28;27.92;;;2.00;99.90;;;;;;4986006;28;20256;-76
2021/01/04 04:22:16;;;;;;;56.35;28.52;;;2.00;99.90;;;;;;4989945;28;20233;-76
2021/01/04 04:24:43;;;;;;;52.17;29.13;;;2.10;99.90;;;;;;4991437;28;20228;-77
2021/01/04 04:27:11;;;;;;;56.15;29.33;;;2.00;99.40;;;;;;4993982;28;20217;-75
2021/01/04 04:29:38;;;;;;;51.33;29.45;;;2.00;99.20;;;;;;4988803;28;20256;-75
2021/01/04 04:32:06;;;;;;;51.55;28.38;;;1.90;99.20;;;;;;4975928;28;20284;-76
2021/01/04 04:34:33;;;;;;;46.58;29.20;;;1.90;99.20;;;;;;4976236;28;20239;-78
2021/01/04 04:37:00;;;;;;;48.50;27.30;;;2.00;99.20;;;;;;4978039;28;20213;-77
2021/01/04 04:39:26;;;;;;;51.55;28.00;;;1.90;99.20;;;;;;4992887;28;20221;-78
2021/01/04 04:41:55;;;;;;;52.15;26.90;;;1.90;99.20;;;;;;4988833;28;20229;-77
2021/01/04 04:44:27;;;;;;;51.47;28.00;;;1.90;99.20;;;;;;4991947;28;20545;-77
2021/01/04 04:47:06;;;;;;;54.65;28.33;;;1.80;99.20;;;;;;4990392;28;20224;-76
2021/01/04 04:49:54;;;;;;;50.20;27.85;;;1.80;99.60;;;;;;4989856;28;20289;-75
2021/01/04 04:52:52;;;;;;;50.83;29.10;;;1.80;99.70;;;;;;4988428;28;20496;-76
2021/01/04 04:55:35;;;;;;;53.20;26.90;;;1.80;99.90;;;;;;4988699;28;20201;-76
2021/01/04 04:58:20;;;;;;;55.45;28.23;;;1.80;99.90;;;;;;4977587;28;20217;-76
2021/01/04 05:01:03;;;;;;;52.30;28.55;;;1.90;99.80;;;;;;4977120;28;20221;-76
2021/01/04 05:06:58;;;;;;;53.20;26.98;;;1.80;99.80;;;;;;4944843;28;20223;-76
2021/01/04 05:09:52;;;;;;;53.47;29.25;;;1.70;99.90;;;;;;4976898;28;20237;-76
2021/01/04 05:12:42;;;;;;;53.22;27.30;;;1.70;99.90;;;;;;4979379;28;20251;-78
2021/01/04 05:15:32;;;;;;;50.70;25.67;;;1.70;99.90;;;;;;4978967;28;20309;-77
2021/01/04 05:18:18;;;;;;;48.17;26.83;;;1.80;99.90;;;;;;4980019;28;20213;-75
2021/01/04 05:21:09;;;;;;;59.05;28.80;;;1.80;99.90;;;;;;4983101;28;20735;-76
2021/01/04 05:24:05;;;;;;;56.65;28.83;;;1.80;99.90;;;;;;4987208;28;20260;-76
2021/01/04 05:26:47;;;;;;;53.30;28.23;;;1.80;99.90;;;;;;4980600;28;20208;-76
2021/01/04 05:29:46;;;;;;;57.78;29.85;;;1.80;99.90;;;;;;4988860;28;20724;-78
2021/01/04 05:32:25;;;;;;;54.80;28.65;;;1.80;99.90;;;;;;4984501;28;20209;-76
2021/01/04 05:34:55;;;;;;;52.38;27.40;;;1.70;99.90;;;;;;4981525;28;20190;-78
2021/01/04 05:37:33;;;;;;;55.90;28.55;;;1.70;99.90;;;;;;4974811;28;20220;-76
2021/01/04 05:40:48;;;;;;;53.20;29.15;;;1.80;99.90;;;;;;4974773;28;20308;-77
2021/01/04 05:43:28;;;;;;;55.08;29.23;;;1.70;99.90;;;;;;4962178;28;20205;-76
2021/01/04 05:46:02;;;;;;;53.72;26.38;;;1.70;99.90;;;;;;4975237;28;20266;-76
2021/01/04 05:48:54;;;;;;;52.33;27.40;;;1.80;99.90;;;;;;4975042;28;20221;-75
2021/01/04 05:51:25;;;;;;;54.92;27.40;;;1.80;99.90;;;;;;4974973;28;20197;-76
2021/01/04 05:53:51;;;;;;;51.88;26.77;;;1.70;99.90;;;;;;4975839;28;20236;-75
2021/01/04 05:56:23;;;;;;;49.47;25.95;;;1.80;99.90;;;;;;4976532;28;20737;-76
2021/01/04 05:58:51;;;;;;;48.00;26.73;;;1.80;99.90;;;;;;4974196;28;20640;-76
2021/01/04 06:01:23;;;;;;;53.83;28.05;;;1.80;99.90;;;;;;4973941;28;20205;-75
2021/01/04 06:03:58;;;;;;;51.75;27.80;;;1.80;99.90;;;;;;4974086;28;20209;-76
2021/01/04 06:06:30;;;;;;;46.03;24.67;;;1.80;99.90;;;;;;4973583;28;20323;-76
2021/01/04 06:09:06;;;;;;;46.28;24.73;;;1.80;99.80;;;;;;4977503;28;20207;-76
2021/01/04 06:11:32;;;;;;;51.97;27.45;;;1.80;99.80;;;;;;4978053;28;20657;-77
2021/01/04 06:14:06;;;;;;;51.08;26.92;;;1.80;99.60;;;;;;4975429;28;20308;-77
2021/01/04 06:16:33;;;;;;;49.50;26.05;;;1.80;99.30;;;;;;4979048;28;20227;-77
2021/01/04 06:19:09;;;;;;;49.75;25.40;;;1.90;99.20;;;;;;4975262;28;20732;-77
2021/01/04 06:21:45;;;;;;;52.25;26.95;;;1.80;99.10;;;;;;4976337;28;20210;-77
2021/01/04 06:24:27;;;;;;;48.72;24.92;;;1.80;99.20;;;;;;4978488;28;20204;-77
2021/01/04 06:26:56;;;;;;;49.70;26.40;;;1.80;99.60;;;;;;4981193;28;20748;-77
2021/01/04 06:29:36;;;;;;;53.03;24.70;;;1.80;99.50;;;;;;4977942;28;20253;-77
2021/01/04 06:32:07;;;;;;;49.58;25.23;;;1.80;99.60;;;;;;4976970;28;20205;-77
2021/01/04 06:34:35;;;;;;;53.30;26.95;;;1.80;99.70;;;;;;4977745;28;20736;-77
2021/01/04 06:37:09;;;;;;;55.83;26.92;;;1.70;99.60;;;;;;4974575;28;20292;-77
2021/01/04 06:39:36;;;;;;;56.05;29.30;;;1.70;99.60;;;;;;4982744;28;20709;-77
2021/01/04 06:42:17;;;;;;;48.13;25.48;;;1.70;99.50;;;;;;4978385;28;20213;-78
2021/01/04 06:45:13;;;;;;;49.42;26.73;;;1.80;99.70;;;;;;4987686;28;20243;-77
2021/01/04 06:47:51;;;;;;;47.05;24.38;;;1.80;99.30;;;;;;4954877;28;20213;-77
2021/01/04 06:50:26;;;;;;;50.95;26.65;;;1.80;99.10;;;;;;4978587;28;20288;-77
2021/01/04 06:53:32;;;;;;;49.55;26.35;;;1.70;99.10;;;;;;4983919;28;20204;-77
2021/01/04 06:56:38;;;;;;;47.90;25.40;;;1.70;99.10;;;;;;4976637;28;20233;-77
2021/01/04 06:59:36;;;;;;;47.35;25.02;;;1.80;99.10;;;;;;4972414;28;20252;-77
2021/01/04 07:02:37;;;;;;;54.75;27.33;;;1.90;99.20;;;;;;4972569;28;20240;-77
2021/01/04 07:05:51;;;;;;;47.95;25.20;;;1.80;98.80;;;;;;4958440;28;20228;-76
2021/01/04 07:08:51;;;;;;;53.63;26.75;;;1.80;98.70;;;;;;4932805;28;20304;-76
2021/01/04 07:11:34;;;;;;;52.25;26.55;;;1.70;98.90;;;;;;4957087;28;20213;-77
2021/01/04 07:14:25;;;;;;;52.35;26.95;;;1.70;99.10;;;;;;4974957;28;20733;-76
2021/01/04 07:17:21;;;;;;;47.90;26.50;;;1.70;99.10;;;;;;4976415;28;20205;-76
2021/01/04 07:20:04;;;;;;;52.20;28.65;;;1.60;99.90;;;;;;4975538;28;20237;-76
2021/01/04 07:22:41;;;;;;;58.58;28.92;;;1.60;99.90;;;;;;4975734;28;20673;-76
2021/01/04 07:25:17;;;;;;;58.47;29.73;;;1.70;99.90;;;;;;4976717;28;20232;-77
2021/01/04 07:27:54;;;;;;;59.00;29.50;;;1.70;99.90;;;;;;4975894;28;20342;-77
2021/01/04 07:30:54;;;;;;;59.13;29.17;;;1.80;99.80;;;;;;4975174;28;20225;-78
2021/01/04 07:33:37;;;;;;;62.67;28.40;;;1.80;99.10;;;;;;4974585;28;20251;-78
2021/01/04 07:36:12;;;;;;;57.58;28.35;;;1.90;98.90;;;;;;4974996;28;20288;-77
2021/01/04 07:38:51;;;;;;;59.75;27.63;;;1.90;98.60;;;;;;4975498;28;20257;-77
2021/01/04 07:41:36;;;;;;;51.53;27.20;;;1.90;97.60;;;;;;4975116;28;20228;-77
2021/01/04 07:44:41;;;;;;;49.47;26.77;;;1.90;97.50;;;;;;4974515;28;20254;-78
2021/01/04 07:47:47;;;;;;;51.38;27.20;;;1.90;97.40;;;;;;4976432;28;20650;-77
2021/01/04 07:50:45;;;;;;;46.80;25.30;;;1.90;97.30;;;;;;4975619;28;20225;-78
2021/01/04 07:53:34;;;;;;;51.00;26.63;;;1.90;97.60;;;;;;4967155;28;20203;-77
2021/01/04 07:56:44;;;;;;;48.58;25.52;;;1.80;97.80;;;;;;4966310;28;20215;-78
2021/01/04 08:00:02;;;;;;;53.95;26.55;;;1.80;98.30;;;;;;4974361;28;20328;-77
2021/01/04 08:03:14;;;;;;;46.25;25.70;;;1.90;98.70;;;;;;4917068;29;20199;-76
2021/01/04 08:06:04;;;;;;;48.25;25.55;;;1.90;99.10;;;;;;4883690;28;20408;-78
2021/01/04 08:08:37;;;;;;;60.80;28.85;;;2.00;99.00;;;;;;4979716;28;20217;-78
2021/01/04 08:11:42;;;;;;;56.97;28.38;;;1.80;98.60;;;;;;4972473;28;20240;-76
2021/01/04 08:14:45;;;;;;;47.65;26.23;;;1.80;98.50;;;;;;4989858;28;20667;-77
2021/01/04 08:17:17;;;;;;;49.30;26.80;;;1.90;98.40;;;;;;4993865;28;20220;-80
2021/01/04 08:19:45;;;;;;;50.80;27.23;;;1.80;98.40;;;;;;4982588;28;20764;-77
2021/01/04 08:22:30;;;;;;;53.10;27.83;;;1.80;98.40;;;;;;4975501;28;20264;-76
2021/01/04 08:25:06;;;;;;;55.50;28.20;;;1.80;98.30;;;;;;4975513;28;20224;-77
2021/01/04 08:27:42;;;;;;;50.55;26.33;;;1.80;98.30;;;;;;4975102;28;20217;-75
2021/01/04 08:30:18;;;;;;;49.75;26.63;;;1.80;98.50;;;;;;4976386;28;20235;-76
2021/01/04 08:32:51;;;;;;;52.13;27.73;;;1.80;98.40;;;;;;4957484;28;20253;-77
2021/01/04 08:35:32;;;;;;;51.22;26.15;;;1.80;98.50;;;;;;4973476;28;20610;-76
2021/01/04 08:38:18;;;;;;;59.65;27.30;;;1.90;98.40;;;;;;4976435;28;20276;-77
2021/01/04 13:51:43;;;;;;;40.30;20.58;;;2.90;86.20;;;;;;4235757;23;20529;-81
2021/01/04 14:01:20;;;;;;;39.97;20.90;;;2.70;86.90;;;;;;5973962;23;20200;-83
2021/01/04 16:54:21;;;;;;;30.60;16.60;;;2.50;86.60;;;;;;4957286;29;20205;-81
2021/01/04 17:03:29;;;;;;;32.17;16.85;;;2.40;85.30;;;;;;4922795;29;20238;-81
2021/01/04 17:05:56;;;;;;;35.22;17.25;;;2.40;85.50;;;;;;4958831;29;20226;-81
2021/01/04 17:08:23;;;;;;;31.63;16.63;;;2.50;85.60;;;;;;4960257;29;20195;-81
2021/01/04 17:10:49;;;;;;;29.75;17.48;;;2.50;86.00;;;;;;4964282;28;20269;-80
2021/01/04 17:13:17;;;;;;;32.08;18.60;;;2.50;86.00;;;;;;4979041;28;20210;-82
2021/01/04 17:15:45;;;;;;;31.95;16.38;;;2.50;86.50;;;;;;4978749;28;20279;-81
2021/01/04 17:24:50;;;;;;;23.95;14.68;;;2.50;86.40;;;;;;4882565;29;21390;-80
2021/01/04 17:27:17;;;;;;;23.40;14.85;;;2.50;85.90;;;;;;4883154;29;20225;-80
2021/01/04 17:29:49;;;;;;;25.25;15.57;;;2.50;85.30;;;;;;4883730;29;20229;-82
2021/01/04 17:32:21;;;;;;;31.02;17.67;;;2.40;85.70;;;;;;4883464;29;20229;-82
2021/01/04 17:38:01;;;;;;;28.65;16.35;;;2.50;86.60;;;;;;4809119;29;20239;-83
2021/01/04 18:22:19;;;;;;;30.45;17.52;;;2.40;88.80;;;;;;4972699;28;20230;-81
2021/01/04 18:24:52;;;;;;;31.77;17.90;;;2.30;88.70;;;;;;4995055;28;20220;-85
2021/01/04 18:30:30;;;;;;;35.20;19.65;;;2.30;89.00;;;;;;5015463;23;20248;-82
2021/01/04 18:32:58;;;;;;;34.33;19.08;;;2.40;89.60;;;;;;4957882;28;20482;-85
2021/01/04 18:38:01;;;;;;;32.10;18.25;;;2.30;89.60;;;;;;5221580;23;20236;-81
2021/01/04 21:06:32;;;;;;;18.25;10.73;;;2.10;62.80;;;;;;4953050;29;20262;-81
2021/01/04 21:08:59;;;;;;;17.70;10.90;;;2.10;63.60;;;;;;4957699;28;20243;-82
2021/01/04 21:11:26;;;;;;;19.33;11.20;;;2.10;63.70;;;;;;4958800;28;20231;-81
2021/01/04 21:13:52;;;;;;;20.02;11.02;;;2.10;63.70;;;;;;4956503;29;20210;-82
2021/01/04 21:16:22;;;;;;;17.20;10.60;;;2.00;62.90;;;;;;4948458;29;20179;-82
2021/01/04 21:18:49;;;;;;;17.77;9.60;;;2.10;63.60;;;;;;4992384;23;20300;-78
2021/01/04 21:21:18;;;;;;;18.33;9.90;;;2.10;63.60;;;;;;4979559;28;20205;-82
2021/01/04 21:23:45;;;;;;;20.92;11.48;;;2.00;63.70;;;;;;4981232;28;20247;-81
2021/01/04 21:26:12;;;;;;;16.92;10.13;;;2.00;63.30;;;;;;4980889;28;20240;-78
2021/01/04 21:28:38;;;;;;;18.55;10.93;;;2.00;63.30;;;;;;4976027;28;20256;-80
2021/01/04 21:31:05;;;;;;;18.63;11.20;;;2.10;63.90;;;;;;4960789;28;20209;-80
2021/01/04 21:33:32;;;;;;;16.65;10.77;;;2.10;63.70;;;;;;4960601;28;20733;-80
2021/01/04 21:35:58;;;;;;;22.65;13.88;;;2.00;64.40;;;;;;4960750;28;20293;-80
2021/01/04 21:38:25;;;;;;;18.23;10.82;;;2.10;64.40;;;;;;4963872;28;20253;-80
2021/01/04 21:40:52;;;;;;;20.88;10.85;;;2.00;63.70;;;;;;4965766;29;20269;-80
2021/01/04 21:43:19;;;;;;;19.50;10.07;;;2.00;64.00;;;;;;4967343;28;20237;-81
2021/01/04 21:45:45;;;;;;;21.70;11.75;;;2.10;64.30;;;;;;4974590;28;20225;-82
2021/01/04 21:48:12;;;;;;;33.70;10.82;;;2.00;63.90;;;;;;4974331;28;20214;-80
2021/01/04 21:50:39;;;;;;;18.10;11.57;;;2.00;64.10;;;;;;4981903;28;20228;-81
2021/01/04 21:53:06;;;;;;;20.65;10.73;;;2.00;64.20;;;;;;4981079;28;20214;-82
2021/01/04 21:55:32;;;;;;;20.52;10.25;;;2.00;64.50;;;;;;4979599;28;20232;-79
2021/01/04 21:58:00;;;;;;;17.85;10.80;;;2.00;63.80;;;;;;4979993;28;20215;-80
2021/01/04 22:00:26;;;;;;;17.13;10.80;;;2.00;64.30;;;;;;4978267;28;20211;-79
2021/01/04 22:02:55;;;;;;;23.98;11.85;;;2.00;65.00;;;;;;4982477;28;20236;-79
2021/01/04 22:05:21;;;;;;;16.80;10.50;;;2.00;65.20;;;;;;4978849;28;20205;-79
2021/01/04 22:07:51;;;;;;;17.55;10.02;;;2.00;65.50;;;;;;4980297;28;20609;-77
2021/01/04 22:10:18;;;;;;;21.30;12.93;;;2.00;65.90;;;;;;4980397;28;20225;-82
2021/01/04 22:12:46;;;;;;;19.20;10.20;;;2.00;65.10;;;;;;4981955;28;20244;-78
2021/01/04 22:15:15;;;;;;;16.98;10.40;;;2.00;65.30;;;;;;4977895;28;20209;-80
2021/01/04 22:17:42;;;;;;;20.33;10.75;;;1.90;65.30;;;;;;4978023;28;20233;-80
2021/01/04 22:20:11;;;;;;;24.20;12.10;;;1.90;65.10;;;;;;4980240;28;20297;-80
2021/01/04 22:22:38;;;;;;;18.48;11.00;;;2.00;65.50;;;;;;4978135;28;20213;-78
2021/01/04 22:25:05;;;;;;;18.45;10.85;;;1.90;66.00;;;;;;4976243;28;20277;-77
2021/01/04 22:27:32;;;;;;;20.20;10.00;;;1.90;66.70;;;;;;4978696;28;20221;-80
2021/01/04 22:29:58;;;;;;;21.73;10.35;;;1.90;67.50;;;;;;4979707;28;20240;-80
2021/01/04 22:32:26;;;;;;;17.77;10.43;;;1.90;67.80;;;;;;4978794;28;20256;-81
2021/01/04 22:34:52;;;;;;;20.65;11.20;;;1.90;68.40;;;;;;4975731;28;20569;-78
2021/01/04 22:37:19;;;;;;;20.27;10.32;;;2.00;70.50;;;;;;4973969;28;20210;-79
2021/01/04 22:39:45;;;;;;;18.50;10.50;;;2.00;69.80;;;;;;4975323;28;20255;-78
2021/01/04 22:42:11;;;;;;;20.38;10.13;;;2.00;69.20;;;;;;4975467;28;20284;-79
2021/01/04 22:44:38;;;;;;;16.90;10.15;;;2.10;70.50;;;;;;4976936;28;20300;-81
2021/01/04 22:47:04;;;;;;;17.63;10.18;;;2.10;68.80;;;;;;4976224;28;20251;-79
2021/01/04 22:49:32;;;;;;;20.08;10.90;;;2.20;68.90;;;;;;4976814;28;20270;-78
2021/01/04 22:51:58;;;;;;;21.40;11.32;;;2.10;69.10;;;;;;4984194;28;20262;-79
2021/01/04 22:54:25;;;;;;;21.13;10.82;;;2.10;68.90;;;;;;4980724;28;20236;-80
2021/01/04 22:56:53;;;;;;;24.17;11.85;;;2.00;68.60;;;;;;4981840;28;20205;-81
2021/01/04 22:59:20;;;;;;;17.40;10.57;;;1.90;69.40;;;;;;4995354;28;20253;-80
2021/01/04 23:01:48;;;;;;;25.50;10.82;;;2.00;68.60;;;;;;4994995;28;20204;-79
2021/01/04 23:04:15;;;;;;;18.25;11.93;;;2.00;69.20;;;;;;4990418;28;20273;-80
2021/01/04 23:06:43;;;;;;;21.88;11.63;;;2.00;69.70;;;;;;4978172;28;20225;-79
2021/01/04 23:09:12;;;;;;;23.20;11.45;;;1.90;70.20;;;;;;4982552;28;20217;-79
2021/01/04 23:11:44;;;;;;;21.27;10.93;;;2.10;69.70;;;;;;4984859;28;20205;-81
2021/01/04 23:14:15;;;;;;;21.75;10.75;;;2.00;69.90;;;;;;4986509;28;20224;-80
2021/01/04 23:16:42;;;;;;;20.83;11.27;;;2.00;69.40;;;;;;4985032;28;20725;-80
2021/01/04 23:19:12;;;;;;;20.45;11.10;;;1.90;68.80;;;;;;4985585;28;20271;-79
2021/01/04 23:21:39;;;;;;;20.20;11.32;;;2.00;69.60;;;;;;4983223;28;20236;-79
2021/01/04 23:24:07;;;;;;;18.38;10.52;;;2.00;68.60;;;;;;4985065;28;20235;-77
2021/01/04 23:26:33;;;;;;;19.55;11.48;;;1.90;68.30;;;;;;4988679;28;20229;-80
2021/01/04 23:29:00;;;;;;;17.50;10.55;;;2.00;68.20;;;;;;4986624;28;20296;-77
2021/01/04 23:31:30;;;;;;;20.30;11.73;;;2.00;67.80;;;;;;4983342;28;20216;-77
2021/01/04 23:33:57;;;;;;;17.92;10.68;;;2.10;68.80;;;;;;4979425;28;20219;-79
2021/01/04 23:36:23;;;;;;;23.23;10.68;;;2.00;69.40;;;;;;4977285;28;20215;-79
2021/01/04 23:38:50;;;;;;;20.23;10.52;;;2.00;69.40;;;;;;4981772;28;20284;-79
2021/01/04 23:41:17;;;;;;;23.20;11.35;;;2.00;70.50;;;;;;4989499;28;20265;-79
2021/01/04 23:43:44;;;;;;;20.10;11.25;;;1.90;70.40;;;;;;4985725;28;20217;-79
2021/01/04 23:46:11;;;;;;;19.98;11.27;;;1.90;70.40;;;;;;4990519;28;20221;-79
2021/01/04 23:48:37;;;;;;;18.35;10.93;;;2.00;70.50;;;;;;4997922;28;20231;-77
2021/01/04 23:51:05;;;;;;;23.52;12.20;;;2.00;70.50;;;;;;4997295;28;20236;-79
2021/01/04 23:53:31;;;;;;;21.88;11.68;;;1.90;70.40;;;;;;4990017;28;20240;-80
2021/01/04 23:55:58;;;;;;;22.17;11.60;;;1.90;71.00;;;;;;4984650;28;20292;-78
2021/01/04 23:58:28;;;;;;;24.35;13.40;;;2.00;71.40;;;;;;4984591;28;20229;-81
